createdAt,value
2023-08-16T00:01:07.162Z,7.10
2023-08-16T00:06:15.257Z,6.60
2023-08-16T00:11:21.095Z,6.50
2023-08-16T00:16:27.163Z,6.10
2023-08-16T00:21:33.803Z,6.00
2023-08-16T00:26:36.852Z,5.70
2023-08-16T00:31:43.695Z,5.80
2023-08-16T00:36:46.364Z,5.80
2023-08-16T00:41:49.480Z,5.90
2023-08-16T00:46:52.453Z,6.10
2023-08-16T00:51:55.183Z,6.60
2023-08-16T00:57:01.892Z,6.50
2023-08-16T01:02:05.006Z,5.70
2023-08-16T01:07:08.496Z,5.50
2023-08-16T01:12:42.254Z,6.40
2023-08-16T01:17:46.785Z,6.50
2023-08-16T01:23:08.330Z,6.30
2023-08-16T01:28:13.193Z,5.80
2023-08-16T01:33:16.201Z,6.40
2023-08-16T01:38:43.466Z,6.70
2023-08-16T01:43:49.005Z,6.10
2023-08-16T01:48:57.833Z,5.70
2023-08-16T01:54:01.841Z,5.70
2023-08-16T01:59:04.981Z,6.00
2023-08-16T02:04:07.794Z,6.10
2023-08-16T02:09:10.803Z,6.20
2023-08-16T02:14:13.450Z,6.10
2023-08-16T02:19:20.607Z,6.60
2023-08-16T02:24:25.835Z,6.60
2023-08-16T02:29:34.549Z,6.60
2023-08-16T02:34:37.498Z,6.50
2023-08-16T02:39:40.280Z,6.50
2023-08-16T02:44:44.409Z,6.90
2023-08-16T02:49:47.769Z,6.90
2023-08-16T02:54:50.635Z,7.10
2023-08-16T02:59:55.202Z,7.10
2023-08-16T03:04:57.966Z,7.00
2023-08-16T03:10:00.752Z,7.10
2023-08-16T03:15:03.691Z,6.70
2023-08-16T03:20:10.737Z,6.20
2023-08-16T03:25:21.524Z,6.50
2023-08-16T03:30:24.600Z,6.10
2023-08-16T03:35:27.471Z,7.10
2023-08-16T03:40:32.394Z,6.50
2023-08-16T03:45:43.150Z,6.60
2023-08-16T03:50:46.021Z,6.80
2023-08-16T03:55:58.577Z,6.40
2023-08-16T04:01:03.752Z,6.50
2023-08-16T04:06:16.642Z,7.00
2023-08-16T04:11:20.496Z,6.10
2023-08-16T04:16:25.075Z,6.70
2023-08-16T04:21:33.373Z,7.10
2023-08-16T04:26:36.142Z,6.40
2023-08-16T04:31:40.337Z,7.30
2023-08-16T04:36:43.191Z,6.50
2023-08-16T04:41:48.327Z,7.30
2023-08-16T04:46:51.260Z,7.60
2023-08-16T04:51:54.662Z,6.90
2023-08-16T04:56:57.451Z,7.10
2023-08-16T05:02:05.194Z,7.00
2023-08-16T05:07:08.026Z,7.20
2023-08-16T05:12:14.411Z,6.90
2023-08-16T05:17:17.265Z,7.20
2023-08-16T05:22:28.097Z,7.20
2023-08-16T05:27:31.135Z,6.50
2023-08-16T05:32:36.814Z,6.90
2023-08-16T05:37:39.606Z,7.40
2023-08-16T05:42:43.863Z,6.80
2023-08-16T05:47:48.497Z,6.60
2023-08-16T05:52:51.272Z,7.10
2023-08-16T05:58:08.294Z,6.80
2023-08-16T06:03:11.201Z,6.40
2023-08-16T06:08:14.139Z,7.20
2023-08-16T06:13:16.785Z,6.30
2023-08-16T06:18:21.586Z,8.40
2023-08-16T06:23:32.499Z,9.20
2023-08-16T06:28:35.142Z,8.20
2023-08-16T06:33:40.744Z,7.20
2023-08-16T06:38:45.989Z,7.70
2023-08-16T06:43:49.110Z,7.40
2023-08-16T06:48:56.862Z,7.80
2023-08-16T06:54:00.849Z,7.80
2023-08-16T06:59:03.866Z,6.50
2023-08-16T07:04:06.803Z,6.70
2023-08-16T07:09:10.438Z,6.70
2023-08-16T07:14:15.588Z,7.20
2023-08-16T07:19:18.944Z,7.60
2023-08-16T07:24:21.636Z,6.90
2023-08-16T07:29:25.437Z,7.00
2023-08-16T07:34:30.636Z,6.70
2023-08-16T07:39:34.162Z,6.50
2023-08-16T07:44:37.987Z,6.80
2023-08-16T07:49:43.672Z,6.60
2023-08-16T07:54:46.412Z,6.30
2023-08-16T07:59:49.588Z,7.20
2023-08-16T08:04:52.743Z,7.10
2023-08-16T08:09:59.812Z,7.20
2023-08-16T08:15:08.938Z,7.10
2023-08-16T08:20:15.420Z,7.00
2023-08-16T08:25:21.891Z,7.30
2023-08-16T08:30:24.874Z,6.70
2023-08-16T08:35:32.134Z,6.80
2023-08-16T08:40:36.855Z,7.30
2023-08-16T08:45:41.349Z,6.30
2023-08-16T08:50:46.214Z,7.20
2023-08-16T08:55:53.936Z,7.00
2023-08-16T09:01:09.849Z,7.70
2023-08-16T09:11:39.615Z,7.70
2023-08-16T09:16:56.146Z,6.80
2023-08-16T09:22:00.337Z,7.90
2023-08-16T09:27:04.551Z,6.90
2023-08-16T09:32:16.798Z,7.30
2023-08-16T09:37:23.028Z,6.30
2023-08-16T09:42:38.899Z,7.20
2023-08-16T09:52:56.898Z,6.80
2023-08-16T09:58:04.947Z,6.90
2023-08-16T10:03:10.007Z,7.00
2023-08-16T10:08:22.359Z,6.70
2023-08-16T10:13:25.457Z,7.70
2023-08-16T10:18:29.375Z,6.90
2023-08-16T10:23:32.415Z,7.20
2023-08-16T10:28:38.399Z,6.80
2023-08-16T10:33:52.510Z,6.20
2023-08-16T10:38:59.448Z,5.90
2023-08-16T10:44:06.908Z,6.30
2023-08-16T10:49:11.150Z,6.40
2023-08-16T10:54:17.078Z,7.10
2023-08-16T10:59:22.157Z,6.60
2023-08-16T11:04:38.115Z,6.70
2023-08-16T11:09:41.086Z,7.20
2023-08-16T11:14:47.130Z,6.50
2023-08-16T11:19:52.041Z,7.30
2023-08-16T11:24:57.729Z,7.10
2023-08-16T11:30:05.912Z,7.20
2023-08-16T11:35:13.024Z,7.40
2023-08-16T11:40:21.313Z,7.10
2023-08-16T11:45:33.154Z,7.10
2023-08-16T11:50:37.449Z,7.00
2023-08-16T11:55:41.117Z,7.00
2023-08-16T12:00:52.162Z,7.10
2023-08-16T12:07:02.468Z,7.60
2023-08-16T12:13:18.301Z,6.60
2023-08-16T12:19:27.404Z,6.50
2023-08-16T12:24:45.871Z,6.20
2023-08-16T12:36:07.083Z,6.50
2023-08-16T12:56:04.699Z,6.80
2023-08-16T13:01:41.763Z,6.90
2023-08-16T13:20:26.599Z,7.30
2023-08-16T13:35:50.570Z,7.60
2023-08-16T13:40:53.794Z,8.20
2023-08-16T13:45:55.452Z,7.40
2023-08-16T13:50:57.096Z,6.40
2023-08-16T13:56:04.605Z,7.60
2023-08-16T14:01:09.522Z,6.80
2023-08-16T14:06:12.248Z,6.90
2023-08-16T14:11:14.838Z,7.70
2023-08-16T14:16:16.875Z,6.50
2023-08-16T14:21:19.700Z,6.40
2023-08-16T14:26:21.707Z,7.10
2023-08-16T14:31:27.000Z,7.00
2023-08-16T14:47:09.154Z,6.20
2023-08-16T14:52:20.048Z,6.80
2023-08-16T14:57:22.828Z,6.20
2023-08-16T15:02:29.375Z,6.70
2023-08-16T15:07:32.347Z,6.60
2023-08-16T15:12:36.704Z,7.00
2023-08-16T15:17:39.613Z,6.70
2023-08-16T15:22:42.270Z,9.80
2023-08-16T15:27:48.076Z,7.40
2023-08-16T15:32:54.360Z,7.00
2023-08-16T15:37:57.173Z,8.60
2023-08-16T15:43:01.005Z,8.10
2023-08-16T15:48:07.280Z,7.00
2023-08-16T15:53:11.813Z,7.70
2023-08-16T15:58:14.447Z,8.00
2023-08-16T16:03:17.167Z,8.40
2023-08-16T16:08:23.938Z,7.50
2023-08-16T16:13:27.308Z,7.20
2023-08-16T16:18:30.052Z,6.00
2023-08-16T16:23:33.268Z,5.70
2023-08-16T16:28:36.401Z,5.30
2023-08-16T16:33:39.096Z,4.00
2023-08-16T16:38:47.148Z,4.40
2023-08-16T16:43:50.073Z,4.80
2023-08-16T16:48:52.805Z,4.00
2023-08-16T16:53:55.564Z,3.70
2023-08-16T16:59:00.562Z,3.60
2023-08-16T17:04:06.683Z,3.70
2023-08-16T17:09:12.099Z,4.10
2023-08-16T17:14:18.571Z,4.30
2023-08-16T17:19:22.805Z,3.80
2023-08-16T17:24:25.754Z,3.70
2023-08-16T17:29:31.243Z,3.20
2023-08-16T17:34:38.742Z,3.30
2023-08-16T17:39:49.071Z,3.20
2023-08-16T17:44:53.737Z,3.00
2023-08-16T17:49:58.977Z,3.30
2023-08-16T17:55:02.099Z,3.20
2023-08-16T18:00:12.821Z,2.40
2023-08-16T18:05:18.230Z,2.40
2023-08-16T18:10:22.301Z,2.50
2023-08-16T18:15:25.252Z,2.40
2023-08-16T18:20:28.122Z,1.90
2023-08-16T18:25:31.192Z,1.80
2023-08-16T18:30:33.980Z,2.20
2023-08-16T18:35:36.692Z,2.10
2023-08-16T18:40:40.079Z,2.00
2023-08-16T18:45:47.914Z,2.20
2023-08-16T18:50:53.002Z,2.30
2023-08-16T18:55:56.930Z,2.30
2023-08-16T19:00:59.791Z,1.50
2023-08-16T19:06:03.983Z,1.90
2023-08-16T19:11:07.893Z,1.50
2023-08-16T19:16:10.724Z,2.00
2023-08-16T19:21:13.949Z,2.00
2023-08-16T19:26:16.812Z,1.70
2023-08-16T19:31:24.952Z,2.00
2023-08-16T19:36:27.672Z,1.90
2023-08-16T19:41:30.466Z,1.60
2023-08-16T19:46:35.974Z,2.00
2023-08-16T19:51:42.334Z,2.00
2023-08-16T19:56:45.283Z,1.90
2023-08-16T20:01:48.205Z,1.80
2023-08-16T20:06:51.336Z,2.20
2023-08-16T20:11:54.758Z,2.40
2023-08-16T20:16:57.622Z,2.50
2023-08-16T20:22:00.347Z,2.10
2023-08-16T20:27:03.765Z,2.60
2023-08-16T20:32:38.082Z,2.80
2023-08-16T20:37:34.890Z,2.50
2023-08-16T20:42:42.460Z,2.70
2023-08-16T20:47:45.723Z,3.20
2023-08-16T20:52:48.881Z,3.20
2023-08-16T20:57:51.588Z,2.90
2023-08-16T21:02:54.490Z,3.00
2023-08-16T21:07:59.655Z,3.50
2023-08-16T21:13:06.014Z,3.20
2023-08-16T21:18:08.930Z,3.60
2023-08-16T21:23:12.934Z,3.30
2023-08-16T21:28:20.654Z,3.50
2023-08-16T21:33:25.511Z,4.10
2023-08-16T21:38:30.781Z,3.60
2023-08-16T21:43:33.592Z,3.50
2023-08-16T21:48:36.361Z,3.20
2023-08-16T21:53:39.708Z,4.00
2023-08-16T21:58:49.113Z,3.80
2023-08-16T22:04:17.109Z,4.00
2023-08-16T22:09:22.001Z,3.60
2023-08-16T22:14:26.045Z,3.60
2023-08-16T22:19:29.090Z,3.50
2023-08-16T22:24:32.117Z,3.10
2023-08-16T22:29:34.789Z,3.70
2023-08-16T22:34:39.323Z,3.40
2023-08-16T22:39:42.027Z,3.40
2023-08-16T22:44:46.868Z,3.60
2023-08-16T22:49:51.837Z,3.60
2023-08-16T22:54:56.645Z,3.40
2023-08-16T22:59:59.368Z,3.10
2023-08-16T23:05:11.361Z,3.70
2023-08-16T23:10:15.831Z,3.50
2023-08-16T23:15:18.744Z,3.30
2023-08-16T23:20:22.122Z,3.00
2023-08-16T23:25:29.541Z,3.40
2023-08-16T23:30:32.674Z,3.60
2023-08-16T23:35:35.732Z,3.70
2023-08-16T23:40:40.495Z,3.80
2023-08-16T23:45:45.693Z,3.40
2023-08-16T23:50:50.408Z,3.40
2023-08-16T23:55:53.094Z,3.30
